createdAt,value
2018-02-03T00:00:41.416Z,13.13
2018-02-03T00:03:08.872Z,8.23
2018-02-03T00:05:36.637Z,17.07
2018-02-03T00:08:04.100Z,13.80
2018-02-03T00:10:31.529Z,9.70
2018-02-03T00:12:58.968Z,15.23
2018-02-03T00:15:27.192Z,9.67
2018-02-03T00:17:54.719Z,13.47
2018-02-03T00:20:22.404Z,10.27
2018-02-03T00:22:49.828Z,10.53
2018-02-03T00:25:18.048Z,12.23
2018-02-03T00:27:45.801Z,9.57
2018-02-03T00:30:13.232Z,12.30
2018-02-03T00:32:40.656Z,12.77
2018-02-03T00:35:08.376Z,16.33
2018-02-03T00:37:35.799Z,12.77
2018-02-03T00:40:04.044Z,11.53
2018-02-03T00:42:31.577Z,14.83
2018-02-03T00:44:59.080Z,11.53
2018-02-03T00:47:26.628Z,16.50
2018-02-03T00:49:54.054Z,15.90
2018-02-03T00:52:21.480Z,12.03
2018-02-03T00:54:48.903Z,15.20
2018-02-03T00:57:16.335Z,14.70
2018-02-03T00:59:43.869Z,14.60
2018-02-03T01:02:11.291Z,19.87
2018-02-03T01:04:39.524Z,16.17
2018-02-03T01:07:06.980Z,17.67
2018-02-03T01:09:34.418Z,9.83
2018-02-03T01:12:01.853Z,15.93
2018-02-03T01:14:29.341Z,21.70
2018-02-03T01:16:56.755Z,16.73
2018-02-03T01:19:24.959Z,15.37
2018-02-03T01:21:52.412Z,22.10
2018-02-03T01:24:19.904Z,14.23
2018-02-03T01:26:47.436Z,9.37
2018-02-03T01:29:14.920Z,17.87
2018-02-03T01:31:42.343Z,17.10
2018-02-03T01:34:10.008Z,14.17
2018-02-03T01:36:37.468Z,13.37
2018-02-03T01:39:04.895Z,14.77
2018-02-03T01:41:32.341Z,17.00
2018-02-03T01:44:00.528Z,22.90
2018-02-03T01:46:27.959Z,26.03
2018-02-03T01:48:55.476Z,23.30
2018-02-03T01:51:22.932Z,19.00
2018-02-03T01:53:50.356Z,26.97
2018-02-03T01:56:18.054Z,24.03
2018-02-03T01:58:45.479Z,19.83
2018-02-03T02:01:12.960Z,25.07
2018-02-03T02:03:40.388Z,24.50
2018-02-03T02:06:07.812Z,30.70
2018-02-03T02:08:35.236Z,24.70
2018-02-03T02:11:02.996Z,18.40
2018-02-03T02:13:30.428Z,31.43
2018-02-03T02:15:57.910Z,16.03
2018-02-03T02:18:25.345Z,15.77
2018-02-03T02:20:52.770Z,18.00
2018-02-03T02:23:20.191Z,17.37
2018-02-03T02:25:47.627Z,21.60
2018-02-03T02:28:15.060Z,21.80
2018-02-03T02:30:43.247Z,20.73
2018-02-03T02:33:10.934Z,25.37
2018-02-03T02:35:38.360Z,20.00
2018-02-03T02:38:05.847Z,19.37
2018-02-03T02:40:33.284Z,19.33
2018-02-03T02:43:00.759Z,20.03
2018-02-03T02:45:28.184Z,15.60
2018-02-03T02:47:55.674Z,18.53
2018-02-03T02:50:23.127Z,22.87
2018-02-03T02:52:50.527Z,21.10
2018-02-03T02:55:19.076Z,23.93
2018-02-03T02:57:46.526Z,15.80
2018-02-03T03:00:13.978Z,23.93
2018-02-03T03:02:41.395Z,19.37
2018-02-03T03:05:09.592Z,21.27
2018-02-03T03:07:37.072Z,23.53
2018-02-03T03:10:04.523Z,21.37
2018-02-03T03:12:31.984Z,31.43
2018-02-03T03:14:59.408Z,25.30
2018-02-03T03:17:27.709Z,24.97
2018-02-03T03:19:55.996Z,23.10
2018-02-03T03:22:23.459Z,28.83
2018-02-03T03:24:50.892Z,28.03
2018-02-03T03:27:18.320Z,24.83
2018-02-03T03:29:46.511Z,26.93
2018-02-03T03:32:13.999Z,25.17
2018-02-03T03:34:41.428Z,21.13
2018-02-03T03:37:08.921Z,25.30
2018-02-03T03:39:36.676Z,24.60
2018-02-03T03:42:04.100Z,23.37
2018-02-03T03:44:32.312Z,33.20
2018-02-03T03:46:59.747Z,27.43
2018-02-03T03:49:27.172Z,27.17
2018-02-03T03:51:55.368Z,26.60
2018-02-03T03:54:23.889Z,25.20
2018-02-03T03:56:51.313Z,27.87
2018-02-03T03:59:18.728Z,18.93
2018-02-03T04:01:46.255Z,28.60
2018-02-03T04:04:13.680Z,29.00
2018-02-03T04:06:41.107Z,29.00
2018-02-03T04:09:08.834Z,22.03
2018-02-03T04:11:36.264Z,24.67
2018-02-03T04:14:03.693Z,28.33
2018-02-03T04:16:31.999Z,23.33
2018-02-03T04:18:59.439Z,20.60
2018-02-03T04:21:27.618Z,29.13
2018-02-03T04:23:55.108Z,34.43
2018-02-03T04:26:22.536Z,27.40
2018-02-03T04:28:49.963Z,24.07
2018-02-03T04:31:17.448Z,29.77
2018-02-03T04:33:44.876Z,24.97
2018-02-03T04:36:12.363Z,25.07
2018-02-03T04:38:40.050Z,28.77
2018-02-03T04:41:07.595Z,31.30
2018-02-03T04:43:35.040Z,24.17
2018-02-03T04:46:02.500Z,33.13
2018-02-03T04:48:29.931Z,29.33
2018-02-03T04:50:57.357Z,25.27
2018-02-03T04:53:24.781Z,24.23
2018-02-03T04:55:52.227Z,23.83
2018-02-03T04:58:19.656Z,22.50
2018-02-03T05:00:47.344Z,22.07
2018-02-03T05:03:14.776Z,22.27
2018-02-03T05:05:42.199Z,23.53
2018-02-03T05:08:09.635Z,19.80
2018-02-03T05:10:37.100Z,26.80
2018-02-03T05:13:04.532Z,21.13
2018-02-03T05:15:32.004Z,22.87
2018-02-03T05:17:59.424Z,28.53
2018-02-03T05:20:26.896Z,21.33
2018-02-03T05:22:54.332Z,22.10
2018-02-03T05:25:21.760Z,26.93
2018-02-03T05:27:49.988Z,37.23
2018-02-03T05:30:17.752Z,22.97
2018-02-03T05:32:45.208Z,31.60
2018-02-03T05:35:12.640Z,23.60
2018-02-03T05:37:40.081Z,27.23
2018-02-03T05:40:08.272Z,22.50
2018-02-03T05:42:35.698Z,23.73
2018-02-03T05:45:03.421Z,21.70
2018-02-03T05:47:30.847Z,22.03
2018-02-03T05:49:58.285Z,27.27
2018-02-03T05:52:26.504Z,27.57
2018-02-03T05:54:53.936Z,33.47
2018-02-03T05:57:21.366Z,29.57
2018-02-03T05:59:49.081Z,23.27
2018-02-03T06:02:16.537Z,21.20
2018-02-03T06:04:43.947Z,34.33
2018-02-03T06:07:12.156Z,24.20
2018-02-03T06:09:39.644Z,29.53
2018-02-03T06:12:07.093Z,31.60
2018-02-03T06:14:34.598Z,30.87
2018-02-03T06:17:02.788Z,22.17
2018-02-03T06:19:30.216Z,29.53
2018-02-03T06:21:57.936Z,25.50
2018-02-03T06:24:25.370Z,30.07
2018-02-03T06:26:52.872Z,32.10
2018-02-03T06:29:20.309Z,29.80
2018-02-03T06:31:47.746Z,21.83
2018-02-03T06:34:15.224Z,24.43
2018-02-03T06:36:42.992Z,22.70
2018-02-03T06:39:10.420Z,27.77
2018-02-03T06:41:37.895Z,33.87
2018-02-03T06:44:05.341Z,27.10
2018-02-03T06:46:32.760Z,33.00
2018-02-03T06:49:00.984Z,28.33
2018-02-03T06:51:28.448Z,34.53
2018-02-03T06:53:55.904Z,25.40
2018-02-03T06:56:23.332Z,29.37
2018-02-03T06:58:51.024Z,33.50
2018-02-03T07:01:18.461Z,30.10
2018-02-03T07:03:45.948Z,29.43
2018-02-03T07:06:13.594Z,36.83
2018-02-03T07:08:41.010Z,33.40
2018-02-03T07:11:08.516Z,30.73
2018-02-03T07:13:35.961Z,32.90
2018-02-03T07:16:03.388Z,34.67
2018-02-03T07:18:31.608Z,34.20
2018-02-03T07:20:59.056Z,29.83
2018-02-03T07:23:26.522Z,33.60
2018-02-03T07:25:53.952Z,30.10
2018-02-03T07:28:21.736Z,25.50
2018-02-03T07:30:49.168Z,24.50
2018-02-03T07:33:16.596Z,39.90
2018-02-03T07:35:44.041Z,32.83
2018-02-03T07:38:11.472Z,28.57
2018-02-03T07:40:38.900Z,28.70
2018-02-03T07:43:06.370Z,27.37
2018-02-03T07:45:33.772Z,23.47
2018-02-03T07:48:01.200Z,35.13
2018-02-03T07:50:28.961Z,31.40
2018-02-03T07:52:56.384Z,30.63
2018-02-03T07:55:23.868Z,32.93
2018-02-03T07:57:51.309Z,36.20
2018-02-03T08:00:18.838Z,36.60
2018-02-03T08:02:46.215Z,30.03
2018-02-03T08:05:13.706Z,28.23
2018-02-03T08:07:41.160Z,22.67
2018-02-03T08:10:08.613Z,30.37
2018-02-03T08:12:36.379Z,30.40
2018-02-03T08:15:03.836Z,30.67
2018-02-03T08:17:31.272Z,30.63
2018-02-03T08:19:58.740Z,27.17
2018-02-03T08:22:26.214Z,27.33
2018-02-03T08:24:53.754Z,26.87
2018-02-03T08:27:21.185Z,28.13
2018-02-03T08:29:49.401Z,34.87
2018-02-03T08:32:16.888Z,27.57
2018-02-03T08:34:44.319Z,29.60
2018-02-03T08:37:11.760Z,39.93
2018-02-03T08:39:39.196Z,23.97
2018-02-03T08:42:07.447Z,25.53
2018-02-03T08:44:34.868Z,24.43
2018-02-03T08:47:02.304Z,31.10
2018-02-03T08:49:29.764Z,26.67
2018-02-03T08:51:57.188Z,23.17
2018-02-03T08:54:25.401Z,35.70
2018-02-03T08:56:53.157Z,28.27
2018-02-03T08:59:20.628Z,24.63
2018-02-03T09:01:48.079Z,26.57
2018-02-03T09:04:15.500Z,30.23
2018-02-03T09:06:43.751Z,25.13
2018-02-03T09:09:11.155Z,25.50
2018-02-03T09:11:38.576Z,20.80
2018-02-03T09:14:06.768Z,12.27
2018-02-03T09:16:34.284Z,14.40
2018-02-03T09:19:01.833Z,13.70
2018-02-03T09:21:29.236Z,13.80
2018-02-03T09:23:56.766Z,12.47
2018-02-03T09:26:24.238Z,11.70
2018-02-03T09:28:51.676Z,15.40
2018-02-03T09:31:19.105Z,10.17
2018-02-03T09:33:46.590Z,10.77
2018-02-03T09:36:14.134Z,17.17
2018-02-03T09:38:41.616Z,19.77
2018-02-03T09:41:09.054Z,15.97
2018-02-03T09:43:36.500Z,15.93
2018-02-03T09:46:04.066Z,17.77
2018-02-03T09:48:31.848Z,20.97
2018-02-03T09:50:59.295Z,17.63
2018-02-03T09:53:26.724Z,18.17
2018-02-03T09:55:54.254Z,17.03
2018-02-03T09:58:21.682Z,21.07
2018-02-03T10:00:49.229Z,17.27
2018-02-03T10:03:16.692Z,24.40
2018-02-03T10:05:44.244Z,15.57
2018-02-03T10:08:11.704Z,18.63
2018-02-03T10:10:39.153Z,20.90
2018-02-03T10:13:06.572Z,22.47
2018-02-03T10:15:34.935Z,24.00
2018-02-03T10:18:02.356Z,27.07
2018-02-03T10:20:29.799Z,26.37
2018-02-03T10:22:57.992Z,29.23
2018-02-03T10:25:25.476Z,24.33
2018-02-03T10:27:52.906Z,24.00
2018-02-03T10:30:20.343Z,21.17
2018-02-03T10:32:48.036Z,23.67
2018-02-03T10:35:15.488Z,23.63
2018-02-03T10:37:42.953Z,24.83
2018-02-03T10:40:10.716Z,30.30
2018-02-03T10:42:38.176Z,19.33
2018-02-03T10:45:05.606Z,19.27
2018-02-03T10:47:33.400Z,28.73
2018-02-03T10:50:00.832Z,15.13
2018-02-03T10:52:28.256Z,18.53
2018-02-03T10:54:56.707Z,13.40
2018-02-03T10:57:24.245Z,17.80
2018-02-03T10:59:51.676Z,18.63
2018-02-03T11:02:19.117Z,16.27
2018-02-03T11:04:47.314Z,13.77
2018-02-03T11:07:14.757Z,11.37
2018-02-03T11:09:42.244Z,17.93
2018-02-03T11:12:09.680Z,13.03
2018-02-03T11:14:37.160Z,12.43
2018-02-03T11:17:04.605Z,15.07
2018-02-03T11:19:32.067Z,16.57
2018-02-03T11:21:59.528Z,15.00
2018-02-03T11:24:26.971Z,13.13
2018-02-03T11:26:54.401Z,12.40
2018-02-03T11:29:22.595Z,13.77
2018-02-03T11:31:50.384Z,14.90
2018-02-03T11:34:17.943Z,13.33
2018-02-03T11:36:45.370Z,11.63
2018-02-03T11:39:12.852Z,12.10
2018-02-03T11:41:41.129Z,9.53
2018-02-03T11:44:08.537Z,11.47
2018-02-03T11:46:35.966Z,8.27
2018-02-03T11:49:03.404Z,6.23
2018-02-03T11:51:30.865Z,7.73
2018-02-03T11:53:58.520Z,10.57
2018-02-03T11:56:25.948Z,7.57
2018-02-03T11:58:54.150Z,7.93
2018-02-03T12:01:21.841Z,9.10
2018-02-03T12:03:49.273Z,11.97
2018-02-03T12:06:16.695Z,12.43
2018-02-03T12:08:45.209Z,11.20
2018-02-03T12:11:12.632Z,9.97
2018-02-03T12:13:40.820Z,11.17
2018-02-03T12:16:08.512Z,9.57
2018-02-03T12:18:35.960Z,9.67
2018-02-03T12:21:03.482Z,10.93
2018-02-03T12:23:30.936Z,12.57
2018-02-03T12:25:58.363Z,10.67
2018-02-03T12:28:25.860Z,10.80
2018-02-03T12:30:53.607Z,9.73
2018-02-03T12:33:21.028Z,11.57
2018-02-03T12:35:49.220Z,10.60
2018-02-03T12:38:16.652Z,9.53
2018-02-03T12:40:44.839Z,8.80
2018-02-03T12:43:13.049Z,9.77
2018-02-03T12:45:40.488Z,10.40
2018-02-03T12:48:07.916Z,11.50
2018-02-03T12:50:36.141Z,10.90
2018-02-03T12:53:03.600Z,10.40
2018-02-03T12:55:31.058Z,9.90
2018-02-03T12:57:58.479Z,7.43
2018-02-03T13:00:26.176Z,14.80
2018-02-03T13:02:53.723Z,10.40
2018-02-03T13:05:21.895Z,11.33
2018-02-03T13:07:49.338Z,11.10
2018-02-03T13:10:16.776Z,9.77
2018-02-03T13:12:44.966Z,13.50
2018-02-03T13:15:12.409Z,17.73
2018-02-03T13:17:40.604Z,11.47
2018-02-03T13:20:08.069Z,17.50
2018-02-03T13:22:36.596Z,13.63
2018-02-03T13:25:04.043Z,12.20
2018-02-03T13:27:32.521Z,13.93
2018-02-03T13:30:00.060Z,10.57
2018-02-03T13:32:28.360Z,11.07
2018-02-03T13:34:55.799Z,13.70
2018-02-03T13:37:23.552Z,14.93
2018-02-03T13:39:50.975Z,12.87
2018-02-03T13:42:19.195Z,15.07
2018-02-03T13:44:46.644Z,10.27
2018-02-03T13:47:14.300Z,10.80
2018-02-03T13:49:41.818Z,9.30
2018-02-03T13:52:09.527Z,14.73
2018-02-03T13:54:37.048Z,14.10
2018-02-03T13:57:05.236Z,11.23
2018-02-03T13:59:33.028Z,9.27
2018-02-03T14:02:00.460Z,14.23
2018-02-03T14:04:27.880Z,12.13
2018-02-03T14:06:55.603Z,11.97
2018-02-03T14:09:23.036Z,11.63
2018-02-03T14:11:50.464Z,12.30
2018-02-03T14:14:19.000Z,15.73
2018-02-03T14:16:46.424Z,16.77
2018-02-03T14:19:13.851Z,17.37
2018-02-03T14:21:41.530Z,12.93
2018-02-03T14:24:15.373Z,11.70
2018-02-03T14:26:42.865Z,13.67
2018-02-03T14:29:10.293Z,14.77
2018-02-03T14:31:37.724Z,18.40
2018-02-03T14:34:05.204Z,11.93
2018-02-03T14:36:32.628Z,14.13
2018-02-03T14:39:00.821Z,13.57
2018-02-03T14:41:28.300Z,14.53
2018-02-03T14:43:55.727Z,14.13
2018-02-03T14:46:23.197Z,13.53
2018-02-03T14:48:51.368Z,13.93
2018-02-03T14:51:18.792Z,16.70
2018-02-03T14:53:47.025Z,15.70
2018-02-03T14:56:14.466Z,20.67
2018-02-03T14:58:41.907Z,19.00
2018-02-03T15:01:09.336Z,17.40
2018-02-03T15:03:37.531Z,19.00
2018-02-03T15:06:04.965Z,23.13
2018-02-03T15:08:32.398Z,20.03
2018-02-03T15:10:59.844Z,21.50
2018-02-03T15:13:27.291Z,21.87
2018-02-03T15:15:54.724Z,20.97
2018-02-03T15:18:22.182Z,21.50
2018-02-03T15:20:49.610Z,24.70
2018-02-03T15:23:17.804Z,26.50
2018-02-03T15:25:45.288Z,21.93
2018-02-03T15:28:12.748Z,21.37
2018-02-03T15:30:40.180Z,25.77
2018-02-03T15:33:07.868Z,28.90
2018-02-03T15:35:35.297Z,25.37
2018-02-03T15:38:02.730Z,25.70
2018-02-03T15:40:31.260Z,24.87
2018-02-03T15:42:58.720Z,25.67
2018-02-03T15:45:26.187Z,27.27
2018-02-03T15:47:53.940Z,29.73
2018-02-03T15:50:21.368Z,31.37
2018-02-03T15:52:48.796Z,26.83
2018-02-03T15:55:16.520Z,29.33
2018-02-03T15:57:43.956Z,30.80
2018-02-03T16:00:11.432Z,30.50
2018-02-03T16:02:39.192Z,29.35
2018-02-03T16:05:06.707Z,31.33
2018-02-03T16:07:34.108Z,28.73
2018-02-03T16:10:01.557Z,32.37
2018-02-03T16:12:28.988Z,26.57
2018-02-03T16:14:57.192Z,28.53
2018-02-03T16:17:24.980Z,32.93
2018-02-03T16:19:52.432Z,29.27
2018-02-03T16:22:19.870Z,35.20
2018-02-03T16:24:50.140Z,38.47
2018-02-03T16:27:17.576Z,46.07
2018-02-03T16:29:45.017Z,50.00
2018-02-03T16:32:12.448Z,36.90
2018-02-03T16:34:39.918Z,45.07
2018-02-03T16:37:07.305Z,47.80
2018-02-03T16:39:34.753Z,32.00
2018-02-03T16:42:02.198Z,30.83
2018-02-03T16:44:29.625Z,26.77
2018-02-03T16:46:57.060Z,30.00
2018-02-03T16:49:25.258Z,29.10
2018-02-03T16:51:53.449Z,27.00
2018-02-03T16:54:21.152Z,27.90
2018-02-03T16:56:48.598Z,27.33
2018-02-03T16:59:16.040Z,26.87
2018-02-03T17:01:43.808Z,26.37
2018-02-03T17:04:11.240Z,27.17
2018-02-03T17:06:38.674Z,27.37
2018-02-03T17:09:06.867Z,33.40
2018-02-03T17:11:34.293Z,25.03
2018-02-03T17:14:01.728Z,27.53
2018-02-03T17:16:29.183Z,27.00
2018-02-03T17:18:56.619Z,28.73
2018-02-03T17:21:24.080Z,32.47
2018-02-03T17:23:51.522Z,33.53
2018-02-03T17:26:19.048Z,28.80
2018-02-03T17:28:46.611Z,28.42
2018-02-03T17:31:14.111Z,29.13
2018-02-03T17:33:42.316Z,30.03
2018-02-03T17:36:09.770Z,25.23
2018-02-03T17:38:52.844Z,28.97
2018-02-03T17:41:20.270Z,27.37
2018-02-03T17:43:47.703Z,27.27
2018-02-03T17:46:24.416Z,37.33
2018-02-03T17:48:51.840Z,29.70
2018-02-03T17:51:19.277Z,33.47
2018-02-03T17:53:47.490Z,36.03
2018-02-03T17:56:20.529Z,35.03
2018-02-03T17:58:48.248Z,36.17
2018-02-03T18:01:15.704Z,35.83
2018-02-03T18:03:43.136Z,43.07
2018-02-03T18:06:10.620Z,42.43
2018-02-03T18:08:38.056Z,34.23
2018-02-03T18:11:05.495Z,36.10
2018-02-03T18:13:34.019Z,32.80
2018-02-03T18:16:01.448Z,32.03
2018-02-03T18:18:28.876Z,24.90
2018-02-03T18:20:56.592Z,20.80
2018-02-03T18:23:24.024Z,11.00
2018-02-03T18:25:51.523Z,14.97
2018-02-03T18:28:18.955Z,10.73
2018-02-03T18:30:46.376Z,12.77
2018-02-03T18:33:14.597Z,13.27
2018-02-03T18:35:42.022Z,9.70
2018-02-03T18:38:09.508Z,9.53
2018-02-03T18:40:36.933Z,11.03
2018-02-03T18:43:04.627Z,11.17
2018-02-03T18:45:46.351Z,10.97
2018-02-03T18:48:13.772Z,12.97
2018-02-03T18:50:41.196Z,12.60
2018-02-03T18:53:09.404Z,11.80
2018-02-03T18:55:36.904Z,13.33
2018-02-03T18:58:05.152Z,13.90
2018-02-03T19:00:32.612Z,13.47
2018-02-03T19:03:00.156Z,12.13
2018-02-03T19:05:27.616Z,11.27
2018-02-03T19:07:55.083Z,11.67
2018-02-03T19:10:22.521Z,10.63
2018-02-03T19:12:49.984Z,9.93
2018-02-03T19:15:17.424Z,15.67
2018-02-03T19:17:44.851Z,9.30
2018-02-03T19:20:13.048Z,10.67
2018-02-03T19:22:40.532Z,11.07
2018-02-03T19:25:07.968Z,14.33
2018-02-03T19:27:35.588Z,14.37
2018-02-03T19:30:03.028Z,15.17
2018-02-03T19:32:30.769Z,17.37
2018-02-03T19:34:58.192Z,21.53
2018-02-03T19:37:25.688Z,18.87
2018-02-03T19:39:53.460Z,15.67
2018-02-03T19:42:20.889Z,18.23
2018-02-03T19:44:48.372Z,18.57
2018-02-03T19:47:16.053Z,17.13
2018-02-03T19:49:43.512Z,15.37
2018-02-03T19:52:11.045Z,15.47
2018-02-03T19:54:38.489Z,18.00
2018-02-03T19:57:05.963Z,15.17
2018-02-03T19:59:33.388Z,18.50
2018-02-03T20:02:01.225Z,16.50
2018-02-03T20:04:28.604Z,16.07
2018-02-03T20:06:56.057Z,16.47
2018-02-03T20:09:24.495Z,15.53
2018-02-03T20:11:52.036Z,17.20
2018-02-03T20:14:19.509Z,15.63
2018-02-03T20:16:47.263Z,17.57
2018-02-03T20:19:14.740Z,15.80
2018-02-03T20:21:42.169Z,15.73
2018-02-03T20:24:09.932Z,23.03
2018-02-03T20:26:37.383Z,16.50
2018-02-03T20:29:04.884Z,20.27
2018-02-03T20:31:32.619Z,42.13
2018-02-03T20:34:00.044Z,28.90
2018-02-03T20:36:27.476Z,17.70
2018-02-03T20:38:55.888Z,16.37
2018-02-03T20:41:23.346Z,15.00
2018-02-03T20:43:50.763Z,18.83
2018-02-03T20:46:19.300Z,18.50
2018-02-03T20:48:46.727Z,18.30
2018-02-03T20:51:14.556Z,22.27
2018-02-03T20:53:42.188Z,17.10
2018-02-03T20:56:09.616Z,22.17
2018-02-03T20:58:37.042Z,18.27
2018-02-03T21:01:04.477Z,23.67
2018-02-03T21:03:32.502Z,22.27
2018-02-03T21:06:00.704Z,19.93
2018-02-03T21:08:28.153Z,26.30
2018-02-03T21:10:55.587Z,21.97
2018-02-03T21:13:23.071Z,20.97
2018-02-03T21:15:50.520Z,20.93
2018-02-03T21:18:17.956Z,20.43
2018-02-03T21:20:45.388Z,26.43
2018-02-03T21:23:13.936Z,23.77
2018-02-03T21:25:41.388Z,23.00
2018-02-03T21:28:08.816Z,19.53
2018-02-03T21:30:36.610Z,18.53
2018-02-03T21:33:04.058Z,20.70
2018-02-03T21:35:31.489Z,20.77
2018-02-03T21:37:59.179Z,20.83
2018-02-03T21:40:26.738Z,17.33
2018-02-03T21:42:54.154Z,20.20
2018-02-03T21:45:22.788Z,17.33
2018-02-03T21:47:50.222Z,18.33
2018-02-03T21:50:17.659Z,17.43
2018-02-03T21:52:45.865Z,21.53
2018-02-03T21:55:13.291Z,16.10
2018-02-03T21:57:40.776Z,17.57
2018-02-03T22:00:08.230Z,20.33
2018-02-03T22:02:35.692Z,18.10
2018-02-03T22:05:03.124Z,18.87
2018-02-03T22:07:30.556Z,18.20
2018-02-03T22:09:58.751Z,19.23
2018-02-03T22:12:26.184Z,16.67
2018-02-03T22:14:54.392Z,17.30
2018-02-03T22:17:21.821Z,16.53
2018-02-03T22:19:50.017Z,17.90
2018-02-03T22:22:17.502Z,19.53
2018-02-03T22:24:45.053Z,17.63
2018-02-03T22:27:12.540Z,16.77
2018-02-03T22:29:40.280Z,17.80
2018-02-03T22:32:07.744Z,19.10
2018-02-03T22:34:35.189Z,17.97
2018-02-03T22:37:02.960Z,15.87
2018-02-03T22:39:30.396Z,16.47
2018-02-03T22:41:57.812Z,15.80
2018-02-03T22:44:26.357Z,10.90
2018-02-03T22:46:53.816Z,13.20
2018-02-03T22:49:21.240Z,11.00
2018-02-03T22:51:48.684Z,10.80
2018-02-03T22:54:16.900Z,9.00
2018-02-03T22:56:44.340Z,11.73
2018-02-03T22:59:12.025Z,12.67
2018-02-03T23:01:39.476Z,11.93
2018-02-03T23:04:06.940Z,11.03
2018-02-03T23:06:34.489Z,11.10
2018-02-03T23:09:01.904Z,11.37
2018-02-03T23:11:30.120Z,12.03
2018-02-03T23:13:57.796Z,10.97
2018-02-03T23:16:25.228Z,12.13
2018-02-03T23:18:52.716Z,11.60
2018-02-03T23:21:20.156Z,13.13
2018-02-03T23:23:47.581Z,12.87
2018-02-03T23:26:15.004Z,11.10
2018-02-03T23:28:42.539Z,9.97
2018-02-03T23:31:10.084Z,13.40
2018-02-03T23:33:37.491Z,13.00
2018-02-03T23:36:05.211Z,12.93
2018-02-03T23:38:32.659Z,9.80
2018-02-03T23:41:00.076Z,10.13
2018-02-03T23:43:28.605Z,11.43
2018-02-03T23:45:56.054Z,10.83
2018-02-03T23:48:23.463Z,15.17
2018-02-03T23:50:50.975Z,9.87
2018-02-03T23:53:18.436Z,13.37
2018-02-03T23:55:45.866Z,10.07
2018-02-03T23:58:13.555Z,8.53
